Detall de PIREP

Printer-friendly versionPDF version

[2012/11/02 09:11:00]
Flight IATA:CT0001
Pilot Number:044
Company ICAO:CAT
Aircraft Type:BE20/A
PAX:2
Departing Airport: LEAL
Destination Airport: LEDA
Alternate Airport:LERS
Online: VATSIM
Route:VLC A34 SEROX H110 OSVAK
Flight Level:F200
No Slew and time accel
No pause
Crash detect
Detect pilot in Cockpit between each 30 and 45 minutes
09:11 Zero fuel Weight: 9058 Lbs, Fuel Weight: 1018 Lbs
09:11 VATSIM:LEAL 020800Z 24004KT CAVOK 15/09 Q1015 NOSIG
09:11 VATSIM:No METAR available for LEDA.
09:11 VOICE CATALONIAN
09:11 Parking Brakes off
09:21 Take-off
09:21 Take off Weight: 10045 Lbs
09:21 Wind: 274º @ 004 Knots Heading: 279º
09:21 POS N38º 16´ 53´´ W000º 33´ 13´´
09:21 Flaps:1 at 132 Knots
09:21 Gear Up: 137 Knots
09:21 Flaps:0 at 137 Knots
09:36 Wind:241º@015 Knots Heading: 011º Ground Speed: 244 Knots Altitude 15754 ft
09:40 TOC
09:40 Fuel Weight: 709 Lb
09:51 Wind:230º@019 Knots Heading: 020º Ground Speed: 310 Knots Altitude 20016 ft
09:55 TOD
09:55 Fuel Weight: 512 Lb
10:06 Wind:229º@013 Knots Heading: 009º Ground Speed: 231 Knots Altitude 8963 ft
10:16 Gear Down: 183 Knots
10:16 Flaps:1 at 170 Knots
10:16 Flaps:2 at 160 Knots
10:17 TouchDown:Rate -329 ft/min Speed: 110 Knots
10:17 VATSIM:LEDA 020930Z 24005KT CAVOK 14/08 Q1013
10:17 Land
10:17 Wind:248º@008 Knots
10:17 Heading: 307º
10:17 Flight Duration: 00:56
10:17 Landing Weight: 9429 Lbs
10:17 POS N41º 43´ 56´´ E000º 31´ 44´´
10:20 Parking brakes on
10:20 Block to Block Duration: 01:09
10:20 Final Fuel: 359 Lbls
10:20 Spent Fuel: 659 Lbls
10:20 Flight Length: 234 NM
10:20 TOD Land Length: 84 NM

Exportar CSV

Powered by Drupal - Modified by Danger4k